sensor_id;sensor_type;location;lat;lon;timestamp;pressure;altitude;pressure_sealevel;temperature;humidity
5996;BME280;3026;53.612;7.278;2023-10-13T00:00:41;100906.81;;;14.14;100.00
5996;BME280;3026;53.612;7.278;2023-10-13T00:03:09;100898.59;;;14.14;100.00
5996;BME280;3026;53.612;7.278;2023-10-13T00:05:41;100902.00;;;14.16;100.00
5996;BME280;3026;53.612;7.278;2023-10-13T00:08:09;100897.16;;;14.18;100.00
5996;BME280;3026;53.612;7.278;2023-10-13T00:10:37;100893.38;;;14.19;100.00
5996;BME280;3026;53.612;7.278;2023-10-13T00:13:05;100881.34;;;14.20;100.00
5996;BME280;3026;53.612;7.278;2023-10-13T00:15:40;100880.31;;;14.21;100.00
5996;BME280;3026;53.612;7.278;2023-10-13T00:18:12;100881.16;;;14.21;100.00
5996;BME280;3026;53.612;7.278;2023-10-13T00:20:45;100871.72;;;14.24;100.00
5996;BME280;3026;53.612;7.278;2023-10-13T00:23:16;100870.66;;;14.25;100.00
5996;BME280;3026;53.612;7.278;2023-10-13T00:25:47;100868.97;;;14.24;100.00
5996;BME280;3026;53.612;7.278;2023-10-13T00:28:23;100861.38;;;14.26;100.00
5996;BME280;3026;53.612;7.278;2023-10-13T00:30:54;100857.59;;;14.27;100.00
5996;BME280;3026;53.612;7.278;2023-10-13T00:33:27;100855.50;;;14.29;100.00
5996;BME280;3026;53.612;7.278;2023-10-13T00:35:54;100857.19;;;14.30;100.00
5996;BME280;3026;53.612;7.278;2023-10-13T00:38:23;100847.91;;;14.31;100.00
5996;BME280;3026;53.612;7.278;2023-10-13T00:40:53;100841.38;;;14.32;100.00
5996;BME280;3026;53.612;7.278;2023-10-13T00:43:21;100846.66;;;14.34;100.00
5996;BME280;3026;53.612;7.278;2023-10-13T00:46:05;100842.03;;;14.34;100.00
5996;BME280;3026;53.612;7.278;2023-10-13T00:48:35;100836.53;;;14.34;100.00
5996;BME280;3026;53.612;7.278;2023-10-13T00:51:12;100829.00;;;14.36;100.00
5996;BME280;3026;53.612;7.278;2023-10-13T00:53:44;100829.00;;;14.36;100.00
5996;BME280;3026;53.612;7.278;2023-10-13T00:56:14;100823.09;;;14.39;100.00
5996;BME280;3026;53.612;7.278;2023-10-13T00:58:54;100819.31;;;14.40;100.00
5996;BME280;3026;53.612;7.278;2023-10-13T01:01:25;100818.91;;;14.43;100.00
5996;BME280;3026;53.612;7.278;2023-10-13T01:03:58;100809.66;;;14.44;100.00
5996;BME280;3026;53.612;7.278;2023-10-13T01:06:27;100805.66;;;14.47;100.00
5996;BME280;3026;53.612;7.278;2023-10-13T01:08:58;100795.38;;;14.49;100.00
5996;BME280;3026;53.612;7.278;2023-10-13T01:11:37;100796.22;;;14.49;100.00
5996;BME280;3026;53.612;7.278;2023-10-13T01:14:04;100800.44;;;14.52;100.00
5996;BME280;3026;53.612;7.278;2023-10-13T01:16:32;100793.69;;;14.54;100.00
5996;BME280;3026;53.612;7.278;2023-10-13T01:19:02;100789.91;;;14.55;100.00
5996;BME280;3026;53.612;7.278;2023-10-13T01:21:31;100797.72;;;14.58;100.00
5996;BME280;3026;53.612;7.278;2023-10-13T01:24:00;100789.50;;;14.58;100.00
5996;BME280;3026;53.612;7.278;2023-10-13T01:26:27;100782.78;;;14.61;100.00
5996;BME280;3026;53.612;7.278;2023-10-13T01:28:57;100779.84;;;14.63;100.00
5996;BME280;3026;53.612;7.278;2023-10-13T01:31:23;100780.28;;;14.66;100.00
5996;BME280;3026;53.612;7.278;2023-10-13T01:33:54;100773.53;;;14.69;100.00
5996;BME280;3026;53.612;7.278;2023-10-13T01:36:26;100771.47;;;14.71;100.00
5996;BME280;3026;53.612;7.278;2023-10-13T01:38:57;100764.72;;;14.73;100.00
5996;BME280;3026;53.612;7.278;2023-10-13T01:41:30;100757.97;;;14.76;100.00
5996;BME280;3026;53.612;7.278;2023-10-13T01:43:56;100757.56;;;14.79;100.00
5996;BME280;3026;53.612;7.278;2023-10-13T01:46:24;100751.28;;;14.85;100.00
5996;BME280;3026;53.612;7.278;2023-10-13T01:48:50;100753.59;;;14.88;100.00
5996;BME280;3026;53.612;7.278;2023-10-13T01:51:22;100749.22;;;14.94;100.00
5996;BME280;3026;53.612;7.278;2023-10-13T01:53:54;100746.69;;;14.99;100.00
5996;BME280;3026;53.612;7.278;2023-10-13T01:56:24;100735.06;;;15.03;100.00
5996;BME280;3026;53.612;7.278;2023-10-13T01:58:52;100731.53;;;15.09;100.00
5996;BME280;3026;53.612;7.278;2023-10-13T02:01:20;100730.69;;;15.15;100.00
5996;BME280;3026;53.612;7.278;2023-10-13T02:03:54;100728.19;;;15.21;100.00
5996;BME280;3026;53.612;7.278;2023-10-13T02:06:29;100718.47;;;15.25;100.00
5996;BME280;3026;53.612;7.278;2023-10-13T02:09:00;100719.78;;;15.29;100.00
5996;BME280;3026;53.612;7.278;2023-10-13T02:11:38;100714.72;;;15.32;100.00
5996;BME280;3026;53.612;7.278;2023-10-13T02:14:06;100709.63;;;15.36;100.00
5996;BME280;3026;53.612;7.278;2023-10-13T02:16:33;100709.22;;;15.39;100.00
5996;BME280;3026;53.612;7.278;2023-10-13T02:19:02;100703.34;;;15.42;100.00
5996;BME280;3026;53.612;7.278;2023-10-13T02:21:31;100703.53;;;15.47;100.00
5996;BME280;3026;53.612;7.278;2023-10-13T02:24:05;100691.06;;;15.51;100.00
5996;BME280;3026;53.612;7.278;2023-10-13T02:26:38;100679.69;;;15.54;100.00
5996;BME280;3026;53.612;7.278;2023-10-13T02:29:07;100680.94;;;15.58;100.00
5996;BME280;3026;53.612;7.278;2023-10-13T02:31:35;100666.63;;;15.63;100.00
5996;BME280;3026;53.612;7.278;2023-10-13T02:34:02;100670.84;;;15.65;100.00
5996;BME280;3026;53.612;7.278;2023-10-13T02:36:32;100668.31;;;15.70;100.00
5996;BME280;3026;53.612;7.278;2023-10-13T02:39:02;100658.59;;;15.74;100.00
5996;BME280;3026;53.612;7.278;2023-10-13T02:41:33;100659.84;;;15.79;100.00
5996;BME280;3026;53.612;7.278;2023-10-13T02:44:03;100659.44;;;15.82;100.00
5996;BME280;3026;53.612;7.278;2023-10-13T02:46:33;100655.19;;;15.86;100.00
5996;BME280;3026;53.612;7.278;2023-10-13T02:49:02;100647.16;;;15.91;100.00
5996;BME280;3026;53.612;7.278;2023-10-13T02:51:35;100645.03;;;15.93;100.00
5996;BME280;3026;53.612;7.278;2023-10-13T02:54:05;100631.94;;;15.95;100.00
5996;BME280;3026;53.612;7.278;2023-10-13T02:56:36;100623.91;;;16.00;100.00
5996;BME280;3026;53.612;7.278;2023-10-13T02:59:03;100617.97;;;16.03;100.00
5996;BME280;3026;53.612;7.278;2023-10-13T03:01:33;100623.88;;;16.07;100.00
5996;BME280;3026;53.612;7.278;2023-10-13T03:04:01;100617.09;;;16.09;100.00
5996;BME280;3026;53.612;7.278;2023-10-13T03:06:30;100622.19;;;16.12;100.00
5996;BME280;3026;53.612;7.278;2023-10-13T03:09:04;100619.00;;;16.15;100.00
5996;BME280;3026;53.612;7.278;2023-10-13T03:11:40;100616.88;;;16.17;100.00
5996;BME280;3026;53.612;7.278;2023-10-13T03:14:14;100626.41;;;16.21;100.00
5996;BME280;3026;53.612;7.278;2023-10-13T03:16:52;100620.91;;;16.21;100.00
5996;BME280;3026;53.612;7.278;2023-10-13T03:19:20;100620.47;;;16.24;100.00
5996;BME280;3026;53.612;7.278;2023-10-13T03:21:48;100622.16;;;16.25;100.00
5996;BME280;3026;53.612;7.278;2023-10-13T03:24:22;100612.84;;;16.26;100.00
5996;BME280;3026;53.612;7.278;2023-10-13T03:26:59;100602.25;;;16.30;100.00
5996;BME280;3026;53.612;7.278;2023-10-13T03:29:34;100610.28;;;16.31;100.00
5996;BME280;3026;53.612;7.278;2023-10-13T03:32:03;100599.94;;;16.33;100.00
5996;BME280;3026;53.612;7.278;2023-10-13T03:34:38;100592.28;;;16.36;100.00
5996;BME280;3026;53.612;7.278;2023-10-13T03:37:15;100581.06;;;16.37;100.00
5996;BME280;3026;53.612;7.278;2023-10-13T03:39:46;100575.97;;;16.41;100.00
5996;BME280;3026;53.612;7.278;2023-10-13T03:42:14;100575.53;;;16.44;100.00
5996;BME280;3026;53.612;7.278;2023-10-13T03:44:46;100559.66;;;16.46;100.00
5996;BME280;3026;53.612;7.278;2023-10-13T03:47:14;100561.13;;;16.48;100.00
5996;BME280;3026;53.612;7.278;2023-10-13T03:49:59;100562.81;;;16.49;100.00
5996;BME280;3026;53.612;7.278;2023-10-13T03:52:39;100548.00;;;16.50;100.00
5996;BME280;3026;53.612;7.278;2023-10-13T03:55:09;100535.69;;;16.53;100.00
5996;BME280;3026;53.612;7.278;2023-10-13T03:57:43;100536.31;;;16.55;100.00
5996;BME280;3026;53.612;7.278;2023-10-13T04:00:15;100529.78;;;16.56;100.00
5996;BME280;3026;53.612;7.278;2023-10-13T04:02:54;100518.75;;;16.56;100.00
5996;BME280;3026;53.612;7.278;2023-10-13T04:05:35;100511.13;;;16.58;100.00
5996;BME280;3026;53.612;7.278;2023-10-13T04:08:07;100516.41;;;16.59;100.00
5996;BME280;3026;53.612;7.278;2023-10-13T04:11:08;100505.63;;;16.58;100.00
5996;BME280;3026;53.612;7.278;2023-10-13T04:13:53;100494.38;;;16.59;100.00
5996;BME280;3026;53.612;7.278;2023-10-13T04:16:38;100486.97;;;16.60;100.00
5996;BME280;3026;53.612;7.278;2023-10-13T04:19:17;100486.97;;;16.60;100.00
5996;BME280;3026;53.612;7.278;2023-10-13T04:21:50;100479.31;;;16.62;100.00
5996;BME280;3026;53.612;7.278;2023-10-13T04:24:39;100473.81;;;16.62;100.00
5996;BME280;3026;53.612;7.278;2023-10-13T04:27:20;100465.56;;;16.62;100.00
5996;BME280;3026;53.612;7.278;2023-10-13T04:30:11;100454.31;;;16.63;100.00
5996;BME280;3026;53.612;7.278;2023-10-13T04:32:45;100456.00;;;16.64;100.00
5996;BME280;3026;53.612;7.278;2023-10-13T04:35:34;100445.84;;;16.65;100.00
5996;BME280;3026;53.612;7.278;2023-10-13T04:38:13;100438.22;;;16.67;100.00
5996;BME280;3026;53.612;7.278;2023-10-13T04:40:46;100432.72;;;16.67;100.00
5996;BME280;3026;53.612;7.278;2023-10-13T04:43:24;100423.44;;;16.68;100.00
5996;BME280;3026;53.612;7.278;2023-10-13T04:46:21;100416.22;;;16.67;100.00
5996;BME280;3026;53.612;7.278;2023-10-13T04:49:01;100421.31;;;16.70;100.00
5996;BME280;3026;53.612;7.278;2023-10-13T04:51:37;100410.28;;;16.70;100.00
5996;BME280;3026;53.612;7.278;2023-10-13T04:54:25;100405.63;;;16.71;100.00
5996;BME280;3026;53.612;7.278;2023-10-13T04:56:59;100400.97;;;16.71;100.00
5996;BME280;3026;53.612;7.278;2023-10-13T04:59:40;100393.31;;;16.73;100.00
5996;BME280;3026;53.612;7.278;2023-10-13T05:02:21;100392.25;;;16.74;100.00
5996;BME280;3026;53.612;7.278;2023-10-13T05:05:14;100382.06;;;16.75;100.00
5996;BME280;3026;53.612;7.278;2023-10-13T05:08:00;100376.34;;;16.76;100.00
5996;BME280;3026;53.612;7.278;2023-10-13T05:10:48;100367.00;;;16.77;100.00
5996;BME280;3026;53.612;7.278;2023-10-13T05:13:35;100356.00;;;16.77;100.00
5996;BME280;3026;53.612;7.278;2023-10-13T05:16:19;100356.66;;;16.79;100.00
5996;BME280;3026;53.612;7.278;2023-10-13T05:19:04;100350.06;;;16.80;100.00
5996;BME280;3026;53.612;7.278;2023-10-13T05:21:49;100339.06;;;16.80;100.00
5996;BME280;3026;53.612;7.278;2023-10-13T05:24:47;100333.53;;;16.80;100.00
5996;BME280;3026;53.612;7.278;2023-10-13T05:27:32;100329.72;;;16.81;100.00
5996;BME280;3026;53.612;7.278;2023-10-13T05:30:16;100326.75;;;16.83;100.00
5996;BME280;3026;53.612;7.278;2023-10-13T05:33:00;100316.56;;;16.83;100.00
5996;BME280;3026;53.612;7.278;2023-10-13T05:35:45;100307.22;;;16.84;100.00
5996;BME280;3026;53.612;7.278;2023-10-13T05:38:29;100315.50;;;16.84;100.00
5996;BME280;3026;53.612;7.278;2023-10-13T05:41:15;100314.41;;;16.85;100.00
5996;BME280;3026;53.612;7.278;2023-10-13T05:44:02;100308.91;;;16.85;100.00
5996;BME280;3026;53.612;7.278;2023-10-13T05:46:47;100293.25;;;16.86;100.00
5996;BME280;3026;53.612;7.278;2023-10-13T05:49:31;100292.41;;;16.85;100.00
5996;BME280;3026;53.612;7.278;2023-10-13T05:52:12;100294.06;;;16.86;100.00
5996;BME280;3026;53.612;7.278;2023-10-13T05:55:06;100286.88;;;16.85;100.00
5996;BME280;3026;53.612;7.278;2023-10-13T05:57:52;100281.38;;;16.85;100.00
5996;BME280;3026;53.612;7.278;2023-10-13T06:00:43;100270.38;;;16.85;100.00
5996;BME280;3026;53.612;7.278;2023-10-13T06:03:30;100259.34;;;16.85;100.00
5996;BME280;3026;53.612;7.278;2023-10-13T06:06:15;100243.69;;;16.86;100.00
5996;BME280;3026;53.612;7.278;2023-10-13T06:09:00;100264.84;;;16.85;100.00
5996;BME280;3026;53.612;7.278;2023-10-13T06:11:44;100248.34;;;16.85;100.00
5996;BME280;3026;53.612;7.278;2023-10-13T06:14:30;100230.13;;;16.84;100.00
5996;BME280;3026;53.612;7.278;2023-10-13T06:17:16;100233.97;;;16.83;100.00
5996;BME280;3026;53.612;7.278;2023-10-13T06:20:00;100220.19;;;16.83;100.00
5996;BME280;3026;53.612;7.278;2023-10-13T06:22:47;100213.63;;;16.84;100.00
5996;BME280;3026;53.612;7.278;2023-10-13T06:25:32;100223.78;;;16.84;100.00
5996;BME280;3026;53.612;7.278;2023-10-13T06:28:22;100240.31;;;16.84;100.00
5996;BME280;3026;53.612;7.278;2023-10-13T06:31:08;100242.47;;;16.82;100.00
5996;BME280;3026;53.612;7.278;2023-10-13T06:33:40;100243.31;;;16.82;100.00
5996;BME280;3026;53.612;7.278;2023-10-13T06:36:11;100239.69;;;16.82;100.00
5996;BME280;3026;53.612;7.278;2023-10-13T06:38:38;100239.69;;;16.82;100.00
5996;BME280;3026;53.612;7.278;2023-10-13T06:41:07;100242.06;;;16.78;100.00
5996;BME280;3026;53.612;7.278;2023-10-13T06:43:34;100228.75;;;16.75;100.00
5996;BME280;3026;53.612;7.278;2023-10-13T06:46:08;100227.53;;;16.71;100.00
5996;BME280;3026;53.612;7.278;2023-10-13T06:48:42;100219.75;;;16.68;100.00
5996;BME280;3026;53.612;7.278;2023-10-13T06:51:09;100207.00;;;16.67;100.00
5996;BME280;3026;53.612;7.278;2023-10-13T06:53:43;100196.44;;;16.64;100.00
5996;BME280;3026;53.612;7.278;2023-10-13T06:56:14;100205.75;;;16.63;100.00
5996;BME280;3026;53.612;7.278;2023-10-13T06:58:48;100206.22;;;16.60;100.00
5996;BME280;3026;53.612;7.278;2023-10-13T07:01:17;100205.16;;;16.61;100.00
5996;BME280;3026;53.612;7.278;2023-10-13T07:03:47;100201.56;;;16.60;100.00
5996;BME280;3026;53.612;7.278;2023-10-13T07:06:20;100189.72;;;16.60;100.00
5996;BME280;3026;53.612;7.278;2023-10-13T07:08:47;100196.91;;;16.61;100.00
5996;BME280;3026;53.612;7.278;2023-10-13T07:11:18;100189.72;;;16.60;100.00
5996;BME280;3026;53.612;7.278;2023-10-13T07:13:59;100174.88;;;16.61;100.00
5996;BME280;3026;53.612;7.278;2023-10-13T07:16:28;100168.53;;;16.60;100.00
5996;BME280;3026;53.612;7.278;2023-10-13T07:19:01;100174.88;;;16.61;100.00
5996;BME280;3026;53.612;7.278;2023-10-13T07:21:33;100168.31;;;16.62;100.00
5996;BME280;3026;53.612;7.278;2023-10-13T07:24:00;100160.06;;;16.62;100.00
5996;BME280;3026;53.612;7.278;2023-10-13T07:26:34;100160.88;;;16.62;100.00
5996;BME280;3026;53.612;7.278;2023-10-13T07:29:08;100157.06;;;16.63;100.00
5996;BME280;3026;53.612;7.278;2023-10-13T07:31:38;100153.47;;;16.63;100.00
5996;BME280;3026;53.612;7.278;2023-10-13T07:34:10;100156.22;;;16.63;100.00
5996;BME280;3026;53.612;7.278;2023-10-13T07:36:54;100158.97;;;16.63;100.00
5996;BME280;3026;53.612;7.278;2023-10-13T07:39:25;100168.91;;;16.64;100.00
5996;BME280;3026;53.612;7.278;2023-10-13T07:41:54;100152.41;;;16.64;100.00
5996;BME280;3026;53.612;7.278;2023-10-13T07:44:29;100146.47;;;16.67;100.00
5996;BME280;3026;53.612;7.278;2023-10-13T07:47:01;100151.53;;;16.70;100.00
5996;BME280;3026;53.612;7.278;2023-10-13T07:49:31;100159.56;;;16.72;100.00
5996;BME280;3026;53.612;7.278;2023-10-13T07:52:05;100162.06;;;16.73;100.00
5996;BME280;3026;53.612;7.278;2023-10-13T07:54:50;100145.09;;;16.76;100.00
5996;BME280;3026;53.612;7.278;2023-10-13T07:57:32;100131.94;;;16.78;100.00
5996;BME280;3026;53.612;7.278;2023-10-13T08:00:01;100137.00;;;16.81;100.00
5996;BME280;3026;53.612;7.278;2023-10-13T08:02:37;100123.84;;;16.83;100.00
5996;BME280;3026;53.612;7.278;2023-10-13T08:05:18;100126.34;;;16.85;100.00
5996;BME280;3026;53.612;7.278;2023-10-13T08:07:54;100125.88;;;16.88;100.00
5996;BME280;3026;53.612;7.278;2023-10-13T08:10:22;100116.53;;;16.89;100.00
5996;BME280;3026;53.612;7.278;2023-10-13T08:12:56;100117.38;;;16.89;100.00
5996;BME280;3026;53.612;7.278;2023-10-13T08:15:24;100104.25;;;16.91;100.00
5996;BME280;3026;53.612;7.278;2023-10-13T08:18:01;100104.84;;;16.94;100.00
5996;BME280;3026;53.612;7.278;2023-10-13T08:20:43;100102.09;;;16.94;100.00
5996;BME280;3026;53.612;7.278;2023-10-13T08:23:10;100094.91;;;16.92;100.00
5996;BME280;3026;53.612;7.278;2023-10-13T08:25:40;100085.19;;;16.90;100.00
5996;BME280;3026;53.612;7.278;2023-10-13T08:28:24;100084.34;;;16.89;100.00
5996;BME280;3026;53.612;7.278;2023-10-13T08:31:09;100075.47;;;16.87;100.00
5996;BME280;3026;53.612;7.278;2023-10-13T08:33:49;100058.34;;;16.85;100.00
5996;BME280;3026;53.612;7.278;2023-10-13T08:36:17;100047.59;;;16.84;100.00
5996;BME280;3026;53.612;7.278;2023-10-13T08:38:55;100046.75;;;16.83;100.00
5996;BME280;3026;53.612;7.278;2023-10-13T08:41:23;100045.06;;;16.82;100.00
5996;BME280;3026;53.612;7.278;2023-10-13T08:44:08;100053.56;;;16.81;100.00
5996;BME280;3026;53.612;7.278;2023-10-13T08:46:57;100040.03;;;16.79;100.00
5996;BME280;3026;53.612;7.278;2023-10-13T08:49:44;100032.81;;;16.78;100.00
5996;BME280;3026;53.612;7.278;2023-10-13T08:52:17;100025.63;;;16.77;100.00
5996;BME280;3026;53.612;7.278;2023-10-13T08:55:12;100014.63;;;16.77;100.00
5996;BME280;3026;53.612;7.278;2023-10-13T08:58:01;100009.13;;;16.77;100.00
5996;BME280;3026;53.612;7.278;2023-10-13T09:00:39;100008.53;;;16.75;100.00
5996;BME280;3026;53.612;7.278;2023-10-13T09:03:37;99998.59;;;16.74;100.00
5996;BME280;3026;53.612;7.278;2023-10-13T09:06:13;99979.56;;;16.73;100.00
5996;BME280;3026;53.612;7.278;2023-10-13T09:08:51;99970.69;;;16.71;100.00
5996;BME280;3026;53.612;7.278;2023-10-13T09:11:32;99968.78;;;16.71;100.00
5996;BME280;3026;53.612;7.278;2023-10-13T09:14:14;99966.88;;;16.72;100.00
5996;BME280;3026;53.612;7.278;2023-10-13T09:17:02;99966.88;;;16.72;100.00
5996;BME280;3026;53.612;7.278;2023-10-13T09:19:48;99966.63;;;16.73;100.00
5996;BME280;3026;53.612;7.278;2023-10-13T09:22:34;99960.88;;;16.75;100.00
5996;BME280;3026;53.612;7.278;2023-10-13T09:25:03;99962.97;;;16.79;100.00
5996;BME280;3026;53.612;7.278;2023-10-13T09:27:33;99969.66;;;16.83;100.00
5996;BME280;3026;53.612;7.278;2023-10-13T09:30:00;99950.50;;;16.88;100.00
5996;BME280;3026;53.612;7.278;2023-10-13T09:32:41;99939.88;;;16.92;100.00
5996;BME280;3026;53.612;7.278;2023-10-13T09:35:18;99924.31;;;16.98;100.00
5996;BME280;3026;53.612;7.278;2023-10-13T09:37:50;99899.06;;;17.01;100.00
5996;BME280;3026;53.612;7.278;2023-10-13T09:40:24;99916.81;;;17.05;100.00
5996;BME280;3026;53.612;7.278;2023-10-13T09:42:52;99932.00;;;17.07;100.00
5996;BME280;3026;53.612;7.278;2023-10-13T09:45:28;99906.50;;;17.12;100.00
5996;BME280;3026;53.612;7.278;2023-10-13T09:48:00;99906.03;;;17.15;100.00
5996;BME280;3026;53.612;7.278;2023-10-13T09:50:37;99908.06;;;17.19;100.00
5996;BME280;3026;53.612;7.278;2023-10-13T09:53:11;99895.28;;;17.25;100.00
5996;BME280;3026;53.612;7.278;2023-10-13T09:55:43;99897.66;;;17.33;100.00
5996;BME280;3026;53.612;7.278;2023-10-13T09:58:12;99887.94;;;17.42;100.00
5996;BME280;3026;53.612;7.278;2023-10-13T10:00:46;99898.38;;;17.52;100.00
5996;BME280;3026;53.612;7.278;2023-10-13T10:03:15;99880.13;;;17.63;100.00
5996;BME280;3026;53.612;7.278;2023-10-13T10:05:58;99891.44;;;17.73;100.00
5996;BME280;3026;53.612;7.278;2023-10-13T10:08:42;99885.63;;;17.86;100.00
5996;BME280;3026;53.612;7.278;2023-10-13T10:14:28;99880.72;;;18.17;100.00
5996;BME280;3026;53.612;7.278;2023-10-13T10:17:09;99892.47;;;18.24;100.00
5996;BME280;3026;53.612;7.278;2023-10-13T10:19:50;99879.38;;;18.31;100.00
5996;BME280;3026;53.612;7.278;2023-10-13T10:22:27;99880.53;;;18.35;100.00
5996;BME280;3026;53.612;7.278;2023-10-13T10:25:00;99874.78;;;18.36;100.00
5996;BME280;3026;53.612;7.278;2023-10-13T10:27:30;99855.22;;;18.38;100.00
5996;BME280;3026;53.612;7.278;2023-10-13T10:29:58;99864.06;;;18.40;100.00
5996;BME280;3026;53.612;7.278;2023-10-13T10:32:34;99856.41;;;18.42;100.00
5996;BME280;3026;53.612;7.278;2023-10-13T10:35:07;99855.06;;;18.45;100.00
5996;BME280;3026;53.612;7.278;2023-10-13T10:37:40;99857.91;;;18.50;100.00
5996;BME280;3026;53.612;7.278;2023-10-13T10:40:14;99862.69;;;18.54;100.00
5996;BME280;3026;53.612;7.278;2023-10-13T10:43:06;99862.78;;;18.59;100.00
5996;BME280;3026;53.612;7.278;2023-10-13T10:45:35;99853.81;;;18.64;100.00
5996;BME280;3026;53.612;7.278;2023-10-13T10:48:05;99837.56;;;18.68;100.00
5996;BME280;3026;53.612;7.278;2023-10-13T10:50:43;99846.44;;;18.70;100.00
5996;BME280;3026;53.612;7.278;2023-10-13T10:53:11;99830.19;;;18.73;100.00
5996;BME280;3026;53.612;7.278;2023-10-13T10:55:39;99813.97;;;18.77;100.00
5996;BME280;3026;53.612;7.278;2023-10-13T10:58:08;99805.75;;;18.82;100.00
5996;BME280;3026;53.612;7.278;2023-10-13T11:01:04;99788.69;;;18.85;100.00
5996;BME280;3026;53.612;7.278;2023-10-13T11:03:35;99800.41;;;18.92;100.00
5996;BME280;3026;53.612;7.278;2023-10-13T11:06:12;99810.41;;;18.98;100.00
5996;BME280;3026;53.612;7.278;2023-10-13T11:08:43;99790.09;;;19.04;100.00
5996;BME280;3026;53.612;7.278;2023-10-13T11:11:28;99790.16;;;19.09;100.00
5996;BME280;3026;53.612;7.278;2023-10-13T11:13:56;99790.81;;;19.16;100.00
5996;BME280;3026;53.612;7.278;2023-10-13T11:16:29;99786.00;;;19.29;100.00
5996;BME280;3026;53.612;7.278;2023-10-13T11:19:02;99785.06;;;19.40;100.00
5996;BME280;3026;53.612;7.278;2023-10-13T11:21:30;99778.53;;;19.46;100.00
5996;BME280;3026;53.612;7.278;2023-10-13T11:23:58;99781.34;;;19.51;100.00
5996;BME280;3026;53.612;7.278;2023-10-13T11:26:36;99765.94;;;19.55;100.00
5996;BME280;3026;53.612;7.278;2023-10-13T11:29:13;99779.84;;;19.60;100.00
5996;BME280;3026;53.612;7.278;2023-10-13T11:31:40;99786.50;;;19.64;100.00
5996;BME280;3026;53.612;7.278;2023-10-13T11:34:10;99753.41;;;19.69;100.00
5996;BME280;3026;53.612;7.278;2023-10-13T11:36:41;99755.38;;;19.74;100.00
5996;BME280;3026;53.612;7.278;2023-10-13T11:39:09;99756.78;;;19.76;100.00
5996;BME280;3026;53.612;7.278;2023-10-13T11:41:44;99766.56;;;19.84;100.00
5996;BME280;3026;53.612;7.278;2023-10-13T11:44:20;99758.03;;;19.91;100.00
5996;BME280;3026;53.612;7.278;2023-10-13T11:46:57;99759.78;;;19.97;100.00
5996;BME280;3026;53.612;7.278;2023-10-13T11:49:57;99751.53;;;20.02;100.00
5996;BME280;3026;53.612;7.278;2023-10-13T11:52:24;99758.78;;;20.08;100.00
5996;BME280;3026;53.612;7.278;2023-10-13T11:54:54;99752.72;;;20.11;100.00
5996;BME280;3026;53.612;7.278;2023-10-13T11:57:24;99750.22;;;20.09;100.00
5996;BME280;3026;53.612;7.278;2023-10-13T11:59:51;99762.13;;;20.10;100.00
5996;BME280;3026;53.612;7.278;2023-10-13T12:02:50;99766.00;;;20.09;100.00
5996;BME280;3026;53.612;7.278;2023-10-13T12:05:37;99750.22;;;20.09;100.00
5996;BME280;3026;53.612;7.278;2023-10-13T12:08:31;99737.22;;;20.10;100.00
5996;BME280;3026;53.612;7.278;2023-10-13T12:11:06;99744.16;;;20.13;100.00
5996;BME280;3026;53.612;7.278;2023-10-13T12:13:48;99744.50;;;20.16;100.00
5996;BME280;3026;53.612;7.278;2023-10-13T12:16:15;99734.56;;;20.20;100.00
5996;BME280;3026;53.612;7.278;2023-10-13T12:18:46;99726.56;;;20.24;100.00
5996;BME280;3026;53.612;7.278;2023-10-13T12:21:18;99723.53;;;20.25;100.00
5996;BME280;3026;53.612;7.278;2023-10-13T12:23:50;99724.63;;;20.24;100.00
5996;BME280;3026;53.612;7.278;2023-10-13T12:26:22;99716.31;;;20.24;100.00
5996;BME280;3026;53.612;7.278;2023-10-13T12:28:59;99741.22;;;20.24;100.00
5996;BME280;3026;53.612;7.278;2023-10-13T12:31:32;99730.69;;;20.21;100.00
5996;BME280;3026;53.612;7.278;2023-10-13T12:34:06;99741.47;;;20.18;100.00
5996;BME280;3026;53.612;7.278;2023-10-13T12:36:40;99729.75;;;20.10;100.00
5996;BME280;3026;53.612;7.278;2023-10-13T12:39:19;99738.03;;;20.05;100.00
5996;BME280;3026;53.612;7.278;2023-10-13T12:42:07;99734.88;;;19.97;100.00
5996;BME280;3026;53.612;7.278;2023-10-13T12:44:52;99730.97;;;19.93;100.00
5996;BME280;3026;53.612;7.278;2023-10-13T12:47:36;99733.41;;;19.89;100.00
5996;BME280;3026;53.612;7.278;2023-10-13T12:50:22;99732.00;;;19.87;100.00
5996;BME280;3026;53.612;7.278;2023-10-13T12:53:00;99744.69;;;19.83;100.00
5996;BME280;3026;53.612;7.278;2023-10-13T12:55:28;99731.38;;;19.79;100.00
5996;BME280;3026;53.612;7.278;2023-10-13T12:57:56;99725.25;;;19.77;100.00
5996;BME280;3026;53.612;7.278;2023-10-13T13:00:26;99738.53;;;19.75;100.00
5996;BME280;3026;53.612;7.278;2023-10-13T13:02:59;99742.91;;;19.71;100.00
5996;BME280;3026;53.612;7.278;2023-10-13T13:05:27;99736.22;;;19.67;100.00
5996;BME280;3026;53.612;7.278;2023-10-13T13:07:57;99736.44;;;19.61;100.00
5996;BME280;3026;53.612;7.278;2023-10-13T13:10:24;99749.34;;;19.55;100.00
5996;BME280;3026;53.612;7.278;2023-10-13T13:13:02;99761.94;;;19.46;100.00
5996;BME280;3026;53.612;7.278;2023-10-13T13:15:31;99756.31;;;19.41;100.00
5996;BME280;3026;53.612;7.278;2023-10-13T13:17:58;99734.66;;;19.33;100.00
5996;BME280;3026;53.612;7.278;2023-10-13T13:20:36;99737.88;;;19.24;100.00
5996;BME280;3026;53.612;7.278;2023-10-13T13:23:05;99751.63;;;19.19;100.00
5996;BME280;3026;53.612;7.278;2023-10-13T13:25:32;99737.75;;;19.14;100.00
5996;BME280;3026;53.612;7.278;2023-10-13T13:27:59;99747.66;;;19.10;100.00
5996;BME280;3026;53.612;7.278;2023-10-13T13:30:32;99722.69;;;19.05;100.00
5996;BME280;3026;53.612;7.278;2023-10-13T13:33:01;99724.78;;;18.98;100.00
5996;BME280;3026;53.612;7.278;2023-10-13T13:35:36;99710.66;;;18.94;100.00
5996;BME280;3026;53.612;7.278;2023-10-13T13:38:03;99703.47;;;18.93;100.00
5996;BME280;3026;53.612;7.278;2023-10-13T13:40:37;99689.34;;;18.90;100.00
5996;BME280;3026;53.612;7.278;2023-10-13T13:43:05;99692.59;;;18.87;100.00
5996;BME280;3026;53.612;7.278;2023-10-13T13:45:37;99673.78;;;18.84;100.00
5996;BME280;3026;53.612;7.278;2023-10-13T13:48:07;99667.69;;;18.82;100.00
5996;BME280;3026;53.612;7.278;2023-10-13T13:50:41;99658.00;;;18.79;100.00